createdAt,value
2019-02-05T00:01:43.067Z,80.77
2019-02-05T00:04:14.748Z,80.79
2019-02-05T00:06:46.523Z,80.31
2019-02-05T00:09:18.203Z,80.11
2019-02-05T00:11:49.908Z,80.21
2019-02-05T00:14:21.595Z,80.16
2019-02-05T00:16:53.389Z,80.21
2019-02-05T00:19:25.060Z,79.78
2019-02-05T00:21:56.737Z,79.52
2019-02-05T00:24:28.432Z,79.57
2019-02-05T00:27:00.489Z,79.69
2019-02-05T00:29:32.169Z,79.27
2019-02-05T00:32:03.789Z,79.23
2019-02-05T00:34:35.391Z,79.39
2019-02-05T00:37:07.119Z,79.49
2019-02-05T00:39:39.461Z,79.21
2019-02-05T00:42:11.356Z,79.33
2019-02-05T00:44:43.314Z,79.16
2019-02-05T00:47:15.011Z,79.40
2019-02-05T00:49:46.602Z,79.17
2019-02-05T00:52:18.557Z,79.14
2019-02-05T00:54:50.152Z,79.22
2019-02-05T00:57:21.859Z,79.41
2019-02-05T00:59:53.524Z,79.66
2019-02-05T01:02:25.141Z,79.37
2019-02-05T01:04:57.105Z,79.28
2019-02-05T01:07:28.813Z,79.57
2019-02-05T01:10:00.492Z,79.58
2019-02-05T01:12:32.202Z,79.87
2019-02-05T01:15:04.430Z,79.54
2019-02-05T01:17:37.613Z,79.61
2019-02-05T01:20:11.938Z,79.71
2019-02-05T01:22:43.651Z,79.76
2019-02-05T01:25:16.993Z,80.03
2019-02-05T01:27:48.699Z,80.07
2019-02-05T01:30:22.396Z,80.17
2019-02-05T01:32:54.098Z,80.04
2019-02-05T01:35:25.791Z,79.95
2019-02-05T01:37:57.504Z,79.99
2019-02-05T01:40:29.499Z,80.10
2019-02-05T01:43:01.213Z,80.00
2019-02-05T01:45:32.925Z,80.17
2019-02-05T01:48:04.628Z,80.24
2019-02-05T01:50:36.315Z,80.19
2019-02-05T01:53:08.302Z,80.27
2019-02-05T01:55:40.074Z,80.09
2019-02-05T01:58:11.758Z,80.16
2019-02-05T02:00:43.366Z,80.25
2019-02-05T02:03:15.107Z,80.36
2019-02-05T02:05:47.319Z,80.42
2019-02-05T02:08:19.017Z,80.29
2019-02-05T02:10:50.728Z,80.16
2019-02-05T02:13:22.420Z,80.11
2019-02-05T02:15:54.121Z,80.14
2019-02-05T02:18:26.092Z,79.93
2019-02-05T02:20:57.700Z,79.99
2019-02-05T02:23:29.406Z,80.05
2019-02-05T02:26:01.093Z,79.83
2019-02-05T02:28:32.817Z,79.90
2019-02-05T02:31:04.682Z,80.00
2019-02-05T02:33:36.449Z,80.14
2019-02-05T02:36:08.140Z,79.90
2019-02-05T02:38:40.849Z,80.08
2019-02-05T02:41:13.045Z,80.24
2019-02-05T02:43:44.771Z,80.35
2019-02-05T02:46:16.472Z,80.41
2019-02-05T02:48:48.191Z,80.36
2019-02-05T02:51:19.858Z,80.45
2019-02-05T02:53:51.552Z,80.54
2019-02-05T02:56:23.243Z,80.48
2019-02-05T02:58:54.962Z,80.54
2019-02-05T03:01:26.763Z,80.25
2019-02-05T03:03:58.479Z,80.02
2019-02-05T03:06:30.150Z,79.92
2019-02-05T03:09:02.147Z,79.83
2019-02-05T03:11:35.433Z,79.32
2019-02-05T03:14:08.118Z,79.28
2019-02-05T03:16:40.087Z,79.08
2019-02-05T03:19:11.856Z,78.97
2019-02-05T03:21:44.303Z,78.97
2019-02-05T03:24:16.293Z,79.59
2019-02-05T03:26:48.061Z,79.63
2019-02-05T03:29:19.755Z,79.52
2019-02-05T03:31:51.446Z,79.42
2019-02-05T03:34:23.086Z,79.26
2019-02-05T03:36:54.936Z,79.40
2019-02-05T03:39:26.647Z,79.49
2019-02-05T03:41:58.324Z,79.59
2019-02-05T03:44:30.041Z,79.57
2019-02-05T03:47:01.772Z,79.61
2019-02-05T03:49:33.834Z,79.74
2019-02-05T03:52:14.761Z,79.77
2019-02-05T03:55:38.602Z,79.74
2019-02-05T03:58:43.420Z,79.71
2019-02-05T04:01:49.371Z,79.35
2019-02-05T04:05:05.900Z,79.52
2019-02-05T04:08:22.173Z,79.51
2019-02-05T04:11:49.851Z,79.57
2019-02-05T04:15:10.753Z,79.41
2019-02-05T04:18:38.473Z,79.28
2019-02-05T04:22:01.037Z,79.62
2019-02-05T04:25:13.607Z,79.48
2019-02-05T04:28:38.273Z,79.24
2019-02-05T04:31:50.396Z,79.35
2019-02-05T04:35:10.572Z,79.33
2019-02-05T04:38:15.719Z,79.17
2019-02-05T04:41:14.266Z,79.61
2019-02-05T04:44:15.860Z,79.22
2019-02-05T04:47:33.635Z,79.00
2019-02-05T04:50:13.908Z,79.05
2019-02-05T04:53:20.186Z,78.59
2019-02-05T04:56:15.147Z,78.67
2019-02-05T04:59:22.398Z,78.65
2019-02-05T05:02:22.604Z,78.72
2019-02-05T05:05:31.697Z,78.81
2019-02-05T05:08:38.777Z,78.46
2019-02-05T05:11:10.455Z,77.98
2019-02-05T05:13:42.517Z,78.23
2019-02-05T05:16:14.342Z,78.03
2019-02-05T05:18:46.279Z,78.03
2019-02-05T05:21:18.072Z,78.33
2019-02-05T05:23:50.014Z,78.62
2019-02-05T05:26:21.976Z,78.78
2019-02-05T05:28:53.759Z,78.79
2019-02-05T05:31:25.388Z,78.84
2019-02-05T05:33:57.098Z,78.50
2019-02-05T05:36:28.802Z,78.37
2019-02-05T05:39:00.882Z,78.36
2019-02-05T05:41:34.135Z,78.29
2019-02-05T05:44:05.849Z,78.54
2019-02-05T05:46:37.653Z,78.51
2019-02-05T05:49:09.453Z,78.54
2019-02-05T05:51:41.494Z,78.87
2019-02-05T05:54:13.507Z,78.85
2019-02-05T05:56:45.189Z,78.92
2019-02-05T05:59:16.977Z,79.32
2019-02-05T06:01:48.760Z,79.59
2019-02-05T06:04:20.487Z,79.93
2019-02-05T06:06:52.263Z,80.19
2019-02-05T06:09:24.976Z,80.38
2019-02-05T06:11:56.663Z,80.44
2019-02-05T06:14:28.357Z,80.36
2019-02-05T06:16:59.995Z,80.23
2019-02-05T06:19:31.978Z,80.29
2019-02-05T06:22:03.678Z,80.37
2019-02-05T06:24:35.305Z,80.27
2019-02-05T06:27:06.995Z,80.13
2019-02-05T06:29:38.802Z,80.01
2019-02-05T06:32:10.750Z,80.00
2019-02-05T06:34:42.474Z,80.17
2019-02-05T06:37:14.331Z,80.27
2019-02-05T06:39:46.261Z,80.29
2019-02-05T06:42:17.974Z,80.15
2019-02-05T06:44:49.977Z,80.17
2019-02-05T06:47:21.703Z,80.33
2019-02-05T06:49:53.645Z,80.20
2019-02-05T06:52:25.363Z,80.28
2019-02-05T06:54:57.301Z,80.29
2019-02-05T06:57:29.189Z,80.10
2019-02-05T07:00:00.806Z,79.99
2019-02-05T07:02:32.695Z,80.04
2019-02-05T07:05:04.368Z,80.25
2019-02-05T07:07:36.216Z,79.87
2019-02-05T07:10:10.827Z,79.77
2019-02-05T07:12:42.473Z,79.86
2019-02-05T07:15:15.158Z,79.70
2019-02-05T07:17:49.919Z,79.46
2019-02-05T07:20:20.230Z,79.31
2019-02-05T07:22:52.350Z,78.93
2019-02-05T07:25:28.394Z,78.56
2019-02-05T07:28:00.552Z,77.97
2019-02-05T07:30:32.707Z,77.53
2019-02-05T07:33:04.403Z,77.02
2019-02-05T07:35:36.165Z,76.37
2019-02-05T07:38:07.884Z,75.75
2019-02-05T07:40:39.661Z,75.47
2019-02-05T07:43:11.837Z,74.90
2019-02-05T07:45:43.520Z,74.11
2019-02-05T07:48:15.173Z,73.52
2019-02-05T07:50:47.224Z,72.74
2019-02-05T07:53:18.941Z,71.63
2019-02-05T07:55:50.637Z,70.66
2019-02-05T07:58:23.320Z,70.53
2019-02-05T08:00:55.089Z,70.89
2019-02-05T08:03:26.892Z,69.42
2019-02-05T08:05:58.790Z,69.88
2019-02-05T08:08:30.518Z,68.45
2019-02-05T08:11:02.381Z,69.02
2019-02-05T08:13:34.134Z,68.00
2019-02-05T08:16:05.890Z,68.19
2019-02-05T08:18:37.586Z,66.95
2019-02-05T08:21:09.539Z,67.95
2019-02-05T08:23:41.445Z,67.65
2019-02-05T08:26:13.396Z,67.67
2019-02-05T08:28:45.167Z,66.55
2019-02-05T08:31:16.894Z,66.74
2019-02-05T08:33:48.863Z,66.80
2019-02-05T08:36:21.543Z,66.05
2019-02-05T08:38:53.340Z,64.79
2019-02-05T08:41:24.955Z,64.23
2019-02-05T08:43:56.669Z,64.58
2019-02-05T08:46:28.403Z,64.77
2019-02-05T08:49:00.203Z,64.69
2019-02-05T08:51:31.866Z,61.98
2019-02-05T08:54:03.633Z,60.38
2019-02-05T08:56:35.536Z,58.45
2019-02-05T08:59:07.318Z,47.54
2019-02-05T09:01:39.513Z,40.45
2019-02-05T09:04:11.401Z,39.51
2019-02-05T09:06:43.348Z,38.24
2019-02-05T09:09:15.139Z,41.74
2019-02-05T09:11:46.913Z,45.25
2019-02-05T09:14:18.521Z,40.37
2019-02-05T09:16:50.148Z,32.74
2019-02-05T09:19:21.805Z,30.21
2019-02-05T09:21:53.574Z,27.43
2019-02-05T09:24:25.302Z,29.27
2019-02-05T09:27:06.025Z,33.55
2019-02-05T09:29:37.736Z,31.90
2019-02-05T09:32:09.555Z,25.79
2019-02-05T09:34:41.404Z,27.63
2019-02-05T09:37:13.316Z,33.91
2019-02-05T09:39:45.015Z,38.69
2019-02-05T09:42:16.620Z,41.15
2019-02-05T09:44:48.378Z,47.61
2019-02-05T09:47:20.033Z,49.36
2019-02-05T09:49:51.652Z,49.02
2019-02-05T09:52:23.318Z,49.34
2019-02-05T09:54:55.284Z,50.26
2019-02-05T09:57:27.020Z,49.16
2019-02-05T09:59:58.728Z,47.71
2019-02-05T10:02:30.354Z,49.71
2019-02-05T10:05:02.068Z,48.16
2019-02-05T10:07:34.009Z,51.93
2019-02-05T10:10:06.171Z,52.02
2019-02-05T10:12:37.842Z,52.04
2019-02-05T10:15:13.067Z,52.29
2019-02-05T10:17:44.774Z,51.62
2019-02-05T10:20:16.617Z,53.99
2019-02-05T10:22:48.430Z,53.77
2019-02-05T10:25:20.206Z,52.84
2019-02-05T10:27:51.813Z,52.78
2019-02-05T10:30:25.894Z,50.80
2019-02-05T10:32:57.687Z,44.59
2019-02-05T10:35:29.397Z,44.46
2019-02-05T10:38:01.082Z,45.78
2019-02-05T10:40:33.845Z,48.24
2019-02-05T10:43:05.856Z,48.86
2019-02-05T10:45:37.529Z,46.50
2019-02-05T10:48:10.383Z,44.43
2019-02-05T10:50:42.084Z,42.68
2019-02-05T10:53:13.910Z,45.00
2019-02-05T10:55:45.550Z,47.03
2019-02-05T10:58:17.213Z,49.21
2019-02-05T11:00:49.109Z,49.69
2019-02-05T11:03:20.885Z,50.87
2019-02-05T11:05:52.676Z,51.42
2019-02-05T11:10:54.904Z,53.42
2019-02-05T11:13:26.670Z,53.75
2019-02-05T11:15:58.392Z,53.93
2019-02-05T11:18:30.510Z,53.53
2019-02-05T11:21:04.310Z,52.99
2019-02-05T11:23:35.693Z,52.77
2019-02-05T11:26:07.419Z,52.23
2019-02-05T11:28:39.492Z,53.48
2019-02-05T11:31:11.350Z,52.89
2019-02-05T11:33:43.280Z,52.47
2019-02-05T11:36:14.956Z,53.55
2019-02-05T11:38:46.650Z,54.15
2019-02-05T11:41:18.290Z,53.82
2019-02-05T11:43:51.059Z,55.10
2019-02-05T11:46:22.864Z,57.69
2019-02-05T11:48:54.972Z,60.08
2019-02-05T11:51:26.678Z,61.65
2019-02-05T11:53:58.373Z,60.47
2019-02-05T11:56:30.082Z,61.72
2019-02-05T11:59:01.753Z,62.28
2019-02-05T12:01:39.023Z,62.25
2019-02-05T12:04:08.619Z,63.24
2019-02-05T12:06:40.518Z,63.82
2019-02-05T12:09:24.156Z,63.06
2019-02-05T12:11:56.002Z,62.99
2019-02-05T12:14:28.096Z,63.21
2019-02-05T12:16:59.860Z,63.22
2019-02-05T12:19:31.565Z,64.11
2019-02-05T12:22:03.259Z,64.34
2019-02-05T12:24:34.942Z,64.12
2019-02-05T12:27:06.552Z,64.50
2019-02-05T12:29:38.235Z,63.63
2019-02-05T12:32:10.154Z,63.52
2019-02-05T12:34:43.289Z,63.70
2019-02-05T12:37:14.911Z,63.85
2019-02-05T12:39:46.614Z,63.52
2019-02-05T12:42:18.398Z,63.94
2019-02-05T12:44:50.085Z,63.43
2019-02-05T12:47:22.077Z,62.91
2019-02-05T12:49:53.790Z,63.01
2019-02-05T12:52:25.449Z,63.11
2019-02-05T12:54:57.137Z,63.16
2019-02-05T12:57:28.778Z,63.89
2019-02-05T13:00:00.927Z,63.95
2019-02-05T13:02:32.942Z,64.11
2019-02-05T13:05:04.629Z,63.92
2019-02-05T13:07:36.322Z,64.54
2019-02-05T13:10:09.696Z,64.69
2019-02-05T13:12:41.681Z,64.95
2019-02-05T13:15:13.520Z,64.78
2019-02-05T13:17:46.292Z,64.91
2019-02-05T13:20:20.694Z,64.47
2019-02-05T13:22:52.439Z,65.14
2019-02-05T13:25:25.564Z,64.93
2019-02-05T13:27:57.262Z,64.22
2019-02-05T13:30:30.524Z,64.97
2019-02-05T13:33:02.244Z,65.22
2019-02-05T13:35:34.306Z,65.17
2019-02-05T13:38:06.378Z,65.26
2019-02-05T13:40:38.074Z,64.78
2019-02-05T13:43:10.039Z,65.02
2019-02-05T13:45:41.759Z,65.45
2019-02-05T13:48:13.840Z,65.29
2019-02-05T13:50:45.631Z,65.29
2019-02-05T13:53:17.400Z,65.50
2019-02-05T13:55:49.092Z,65.54
2019-02-05T13:58:20.804Z,65.91
2019-02-05T14:00:54.554Z,66.00
2019-02-05T14:03:26.226Z,66.09
2019-02-05T14:05:57.911Z,66.09
2019-02-05T14:08:29.598Z,66.55
2019-02-05T14:11:01.300Z,66.76
2019-02-05T14:13:33.288Z,65.77
2019-02-05T14:16:04.977Z,65.98
2019-02-05T14:18:36.708Z,66.00
2019-02-05T14:21:08.450Z,66.22
2019-02-05T14:23:40.159Z,66.42
2019-02-05T14:26:12.144Z,66.29
2019-02-05T14:28:43.854Z,66.31
2019-02-05T14:31:15.569Z,66.46
2019-02-05T14:33:47.273Z,66.77
2019-02-05T14:36:18.892Z,66.65
2019-02-05T14:38:50.980Z,66.99
2019-02-05T14:41:22.600Z,66.97
2019-02-05T14:43:54.320Z,67.20
2019-02-05T14:46:25.976Z,67.32
2019-02-05T14:48:57.684Z,67.34
2019-02-05T14:51:29.651Z,67.08
2019-02-05T14:54:01.400Z,66.99
2019-02-05T14:56:33.140Z,67.31
2019-02-05T14:59:04.888Z,67.39
2019-02-05T15:01:43.064Z,67.56
2019-02-05T15:04:10.176Z,67.30
2019-02-05T15:06:41.856Z,67.29
2019-02-05T15:09:13.550Z,67.14
2019-02-05T15:11:45.216Z,66.73
2019-02-05T15:14:16.916Z,66.38
2019-02-05T15:16:48.596Z,67.11
2019-02-05T15:19:20.307Z,67.18
2019-02-05T15:21:52.005Z,66.84
2019-02-05T15:24:23.688Z,66.66
2019-02-05T15:26:55.363Z,66.79
2019-02-05T15:29:27.043Z,66.48
2019-02-05T15:31:58.707Z,66.50
2019-02-05T15:34:30.669Z,66.50
2019-02-05T15:37:02.368Z,66.56
2019-02-05T15:39:34.088Z,66.75
2019-02-05T15:42:05.754Z,66.52
2019-02-05T15:44:37.458Z,66.45
2019-02-05T15:47:09.152Z,66.35
2019-02-05T15:49:41.274Z,66.83
2019-02-05T15:52:13.214Z,67.22
2019-02-05T15:54:44.902Z,67.41
2019-02-05T15:57:16.610Z,67.74
2019-02-05T15:59:48.333Z,68.28
2019-02-05T16:02:20.021Z,68.37
2019-02-05T16:04:51.712Z,68.76
2019-02-05T16:07:23.404Z,68.49
2019-02-05T16:09:55.073Z,68.43
2019-02-05T16:12:26.766Z,68.52
2019-02-05T16:14:58.386Z,68.77
2019-02-05T16:17:30.088Z,69.25
2019-02-05T16:20:01.783Z,69.35
2019-02-05T16:22:34.595Z,69.61
2019-02-05T16:25:07.483Z,69.89
2019-02-05T16:27:39.406Z,69.96
2019-02-05T16:30:17.391Z,70.17
2019-02-05T16:32:49.076Z,70.26
2019-02-05T16:35:20.721Z,69.90
2019-02-05T16:37:53.222Z,69.91
2019-02-05T16:40:26.233Z,70.01
2019-02-05T16:42:58.302Z,70.15
2019-02-05T16:45:30.030Z,70.26
2019-02-05T16:48:01.708Z,70.08
2019-02-05T16:50:35.903Z,70.41
2019-02-05T16:53:08.366Z,70.35
2019-02-05T16:55:40.190Z,70.57
2019-02-05T16:58:11.878Z,70.62
2019-02-05T17:00:43.559Z,70.76
2019-02-05T17:03:15.644Z,70.77
2019-02-05T17:05:47.340Z,70.45
2019-02-05T17:08:19.028Z,70.34
2019-02-05T17:10:50.721Z,70.72
2019-02-05T17:13:22.413Z,70.42
2019-02-05T17:15:54.128Z,70.27
2019-02-05T17:18:25.826Z,70.42
2019-02-05T17:20:57.578Z,70.14
2019-02-05T17:23:29.594Z,70.13
2019-02-05T17:26:01.369Z,70.12
2019-02-05T17:28:33.415Z,70.26
2019-02-05T17:31:05.136Z,70.09
2019-02-05T17:33:37.862Z,70.29
2019-02-05T17:36:10.124Z,70.31
2019-02-05T17:38:41.745Z,70.12
2019-02-05T17:41:13.464Z,70.23
2019-02-05T17:43:46.334Z,70.09
2019-02-05T17:46:18.181Z,69.97
2019-02-05T17:48:51.318Z,70.06
2019-02-05T17:51:23.235Z,70.10
2019-02-05T17:53:56.409Z,70.00
2019-02-05T17:56:28.411Z,70.23
2019-02-05T17:59:00.079Z,70.52
2019-02-05T18:01:31.797Z,70.48
2019-02-05T18:04:03.502Z,70.65
2019-02-05T18:06:35.196Z,70.56
2019-02-05T18:09:08.283Z,70.73
2019-02-05T18:11:42.271Z,70.90
2019-02-05T18:14:15.175Z,71.05
2019-02-05T18:16:46.854Z,71.08
2019-02-05T18:19:18.535Z,70.78
2019-02-05T18:21:50.582Z,70.72
2019-02-05T18:24:22.203Z,70.71
2019-02-05T18:26:54.055Z,70.82
2019-02-05T18:29:28.866Z,70.97
2019-02-05T18:32:00.610Z,70.99
2019-02-05T18:34:32.354Z,71.16
2019-02-05T18:37:05.278Z,71.19
2019-02-05T18:39:39.952Z,71.19
2019-02-05T18:42:11.070Z,71.20
2019-02-05T18:44:44.313Z,71.29
2019-02-05T18:47:16.272Z,71.52
2019-02-05T18:49:48.036Z,71.58
2019-02-05T18:52:20.345Z,71.30
2019-02-05T18:54:54.968Z,71.38
2019-02-05T18:57:30.163Z,71.45
2019-02-05T19:00:02.246Z,71.75
2019-02-05T19:02:35.956Z,71.63
2019-02-05T19:05:10.440Z,71.59
2019-02-05T19:07:44.582Z,71.58
2019-02-05T19:10:18.503Z,71.92
2019-02-05T19:12:51.714Z,71.94
2019-02-05T19:15:25.505Z,72.10
2019-02-05T19:17:57.429Z,72.23
2019-02-05T19:20:32.236Z,72.18
2019-02-05T19:23:04.559Z,72.14
2019-02-05T19:25:55.183Z,72.10
2019-02-05T19:28:36.122Z,72.25
2019-02-05T19:31:17.303Z,72.22
2019-02-05T19:33:49.176Z,72.27
2019-02-05T19:36:20.900Z,72.40
2019-02-05T19:38:53.681Z,72.61
2019-02-05T19:41:25.387Z,72.53
2019-02-05T19:43:57.103Z,72.46
2019-02-05T19:46:46.349Z,72.49
2019-02-05T19:49:30.320Z,72.54
2019-02-05T19:52:02.443Z,72.44
2019-02-05T19:54:34.162Z,72.79
2019-02-05T19:57:05.951Z,72.73
2019-02-05T19:59:37.786Z,72.75
2019-02-05T20:02:10.790Z,72.49
2019-02-05T20:04:43.127Z,72.72
2019-02-05T20:07:15.034Z,72.90
2019-02-05T20:09:47.973Z,72.88
2019-02-05T20:12:22.471Z,73.09
2019-02-05T20:14:55.191Z,73.04
2019-02-05T20:17:27.185Z,72.79
2019-02-05T20:19:59.129Z,72.63
2019-02-05T20:22:30.841Z,72.96
2019-02-05T20:25:04.488Z,73.01
2019-02-05T20:27:38.832Z,72.70
2019-02-05T20:30:12.568Z,72.79
2019-02-05T20:32:44.315Z,72.93
2019-02-05T20:35:16.246Z,73.04
2019-02-05T20:37:48.384Z,73.29
2019-02-05T20:40:20.249Z,73.16
2019-02-05T20:42:52.512Z,73.21
2019-02-05T20:45:25.602Z,73.28
2019-02-05T20:47:57.640Z,73.25
2019-02-05T20:50:29.469Z,73.42
2019-02-05T20:53:13.644Z,73.38
2019-02-05T20:55:41.807Z,73.53
2019-02-05T20:58:13.783Z,73.86
2019-02-05T21:00:46.567Z,73.92
2019-02-05T21:03:19.602Z,73.79
2019-02-05T21:05:51.386Z,73.72
2019-02-05T21:08:23.465Z,73.69
2019-02-05T21:10:57.726Z,73.93
2019-02-05T21:13:29.469Z,73.64
2019-02-05T21:16:01.677Z,73.86
2019-02-05T21:18:33.460Z,73.89
2019-02-05T21:21:08.736Z,73.75
2019-02-05T21:23:40.927Z,73.73
2019-02-05T21:26:12.769Z,73.73
2019-02-05T21:28:44.600Z,73.84
2019-02-05T21:31:16.453Z,73.73
2019-02-05T21:33:48.267Z,73.70
2019-02-05T21:36:20.617Z,73.86
2019-02-05T21:38:52.694Z,73.83
2019-02-05T21:41:24.520Z,73.81
2019-02-05T21:43:58.224Z,73.88
2019-02-05T21:46:31.585Z,73.90
2019-02-05T21:49:03.336Z,74.19
2019-02-05T21:51:40.480Z,74.06
2019-02-05T21:54:09.722Z,74.18
2019-02-05T21:56:41.562Z,74.14
2019-02-05T21:59:14.810Z,74.01
2019-02-05T22:01:46.675Z,74.07
2019-02-05T22:04:26.714Z,74.25
2019-02-05T22:06:51.857Z,74.46
2019-02-05T22:09:23.611Z,74.38
2019-02-05T22:11:55.488Z,74.58
2019-02-05T22:14:28.253Z,74.52
2019-02-05T22:16:59.935Z,74.27
2019-02-05T22:19:31.690Z,74.15
2019-02-05T22:22:03.448Z,74.22
2019-02-05T22:24:35.252Z,74.40
2019-02-05T22:27:07.240Z,74.48
2019-02-05T22:29:38.860Z,74.57
2019-02-05T22:32:10.653Z,74.46
2019-02-05T22:34:42.485Z,74.55
2019-02-05T22:37:14.370Z,74.39
2019-02-05T22:39:46.241Z,74.41
2019-02-05T22:42:17.931Z,74.42
2019-02-05T22:44:49.783Z,74.19
2019-02-05T22:47:21.543Z,74.58
2019-02-05T22:49:53.315Z,74.45
2019-02-05T22:52:26.117Z,74.20
2019-02-05T22:54:57.799Z,74.69
2019-02-05T22:57:31.662Z,75.04
2019-02-05T23:00:02.910Z,75.35
2019-02-05T23:02:39.040Z,75.36
2019-02-05T23:05:33.872Z,75.54
2019-02-05T23:08:05.687Z,75.69
2019-02-05T23:11:03.330Z,75.64
2019-02-05T23:13:34.359Z,75.50
2019-02-05T23:16:23.494Z,75.40
2019-02-05T23:18:55.285Z,75.43
2019-02-05T23:21:27.079Z,75.18
2019-02-05T23:23:59.172Z,75.40
2019-02-05T23:26:31.893Z,75.57
2019-02-05T23:29:03.609Z,75.55
2019-02-05T23:31:35.639Z,75.53
2019-02-05T23:34:07.375Z,75.43
2019-02-05T23:36:39.483Z,75.34
2019-02-05T23:39:11.391Z,75.15
2019-02-05T23:41:43.264Z,75.02
2019-02-05T23:44:14.934Z,75.06
2019-02-05T23:46:46.697Z,74.88
2019-02-05T23:49:18.609Z,74.76
2019-02-05T23:51:50.226Z,74.93
2019-02-05T23:54:23.040Z,74.64
2019-02-05T23:56:54.798Z,74.54
2019-02-05T23:59:26.520Z,74.26
